Wecota, South Dakota
Current Conditions -  °F | °C
As of 11:53 PM on Saturday 20 Dec 2014 (Local Time) from KABR Reporting Station
Overcast Overcast  
Wind Chill: 20°   Ceiling: 500
Heat Index: 30°   Visibility: 7mi
Dew Point: 28°   Wind: 14mph
Humidity: 92%   Direction: 190°S
Pressure: 29.88"   Gusts: NA
Location:  45.0672°N, 99.0996°W
Report Text: KABR 210553Z AUTO 19012KT 7SM OVC005 M01/M02 A2988 RMK AO2 SLP133 T10111022 11006 21017 410061039 58009
Loading
Personal Weather Stations






























Interactive Weather Map New forecast layout! Learn more

10-Day Weather Forecast

Advertisements
Track Severe Weather on mobile